sensor_id;sensor_type;location;lat;lon;timestamp;P1;durP1;ratioP1;P2;durP2;ratioP2
5951;SDS011;3001;42.622;23.194;2022-08-01T00:01:11;5.30;;;5.07;;
5951;SDS011;3001;42.622;23.194;2022-08-01T00:03:38;5.00;;;4.70;;
5951;SDS011;3001;42.622;23.194;2022-08-01T00:06:06;4.63;;;4.27;;
5951;SDS011;3001;42.622;23.194;2022-08-01T00:08:33;5.13;;;4.80;;
5951;SDS011;3001;42.622;23.194;2022-08-01T00:11:00;6.40;;;5.80;;
5951;SDS011;3001;42.622;23.194;2022-08-01T00:13:27;4.53;;;4.17;;
5951;SDS011;3001;42.622;23.194;2022-08-01T00:15:54;4.57;;;4.37;;
5951;SDS011;3001;42.622;23.194;2022-08-01T00:18:20;4.90;;;4.33;;
5951;SDS011;3001;42.622;23.194;2022-08-01T00:20:47;4.80;;;4.50;;
5951;SDS011;3001;42.622;23.194;2022-08-01T00:23:15;5.20;;;4.20;;
5951;SDS011;3001;42.622;23.194;2022-08-01T00:25:42;4.87;;;4.57;;
5951;SDS011;3001;42.622;23.194;2022-08-01T00:28:09;4.23;;;3.97;;
5951;SDS011;3001;42.622;23.194;2022-08-01T00:30:36;4.90;;;4.60;;
5951;SDS011;3001;42.622;23.194;2022-08-01T00:33:03;4.43;;;4.27;;
5951;SDS011;3001;42.622;23.194;2022-08-01T00:35:30;5.00;;;4.00;;
5951;SDS011;3001;42.622;23.194;2022-08-01T00:37:56;5.87;;;3.87;;
5951;SDS011;3001;42.622;23.194;2022-08-01T00:40:24;4.07;;;3.97;;
5951;SDS011;3001;42.622;23.194;2022-08-01T00:42:51;4.90;;;4.53;;
5951;SDS011;3001;42.622;23.194;2022-08-01T00:45:18;3.83;;;3.73;;
5951;SDS011;3001;42.622;23.194;2022-08-01T00:47:45;4.73;;;4.43;;
5951;SDS011;3001;42.622;23.194;2022-08-01T00:50:12;4.13;;;3.80;;
5951;SDS011;3001;42.622;23.194;2022-08-01T00:52:39;3.83;;;3.50;;
5951;SDS011;3001;42.622;23.194;2022-08-01T00:55:07;3.57;;;3.33;;
5951;SDS011;3001;42.622;23.194;2022-08-01T00:57:35;3.43;;;3.23;;
5951;SDS011;3001;42.622;23.194;2022-08-01T01:00:03;3.53;;;3.43;;
5951;SDS011;3001;42.622;23.194;2022-08-01T01:02:31;3.60;;;3.20;;
5951;SDS011;3001;42.622;23.194;2022-08-01T01:04:59;2.90;;;2.80;;
5951;SDS011;3001;42.622;23.194;2022-08-01T01:07:27;3.50;;;3.23;;
5951;SDS011;3001;42.622;23.194;2022-08-01T01:10:00;3.43;;;3.20;;
5951;SDS011;3001;42.622;23.194;2022-08-01T01:12:31;3.07;;;2.97;;
5951;SDS011;3001;42.622;23.194;2022-08-01T01:15:04;3.27;;;3.17;;
5951;SDS011;3001;42.622;23.194;2022-08-01T01:17:38;3.23;;;3.03;;
5951;SDS011;3001;42.622;23.194;2022-08-01T01:20:08;3.10;;;2.93;;
5951;SDS011;3001;42.622;23.194;2022-08-01T01:22:45;3.80;;;3.00;;
5951;SDS011;3001;42.622;23.194;2022-08-01T01:25:30;3.20;;;3.10;;
5951;SDS011;3001;42.622;23.194;2022-08-01T01:28:10;5.90;;;3.13;;
5951;SDS011;3001;42.622;23.194;2022-08-01T01:30:44;3.17;;;3.07;;
5951;SDS011;3001;42.622;23.194;2022-08-01T01:33:16;3.73;;;2.93;;
5951;SDS011;3001;42.622;23.194;2022-08-01T01:35:47;2.77;;;2.67;;
5951;SDS011;3001;42.622;23.194;2022-08-01T01:38:18;2.83;;;2.73;;
5951;SDS011;3001;42.622;23.194;2022-08-01T01:40:48;3.37;;;2.73;;
5951;SDS011;3001;42.622;23.194;2022-08-01T01:43:16;3.60;;;3.40;;
5951;SDS011;3001;42.622;23.194;2022-08-01T01:45:46;2.60;;;2.50;;
5951;SDS011;3001;42.622;23.194;2022-08-01T01:48:15;2.80;;;2.70;;
5951;SDS011;3001;42.622;23.194;2022-08-01T01:50:45;2.47;;;2.23;;
5951;SDS011;3001;42.622;23.194;2022-08-01T01:53:13;2.77;;;2.40;;
5951;SDS011;3001;42.622;23.194;2022-08-01T01:55:43;2.80;;;2.43;;
5951;SDS011;3001;42.622;23.194;2022-08-01T01:58:12;2.37;;;2.27;;
5951;SDS011;3001;42.622;23.194;2022-08-01T02:00:40;2.67;;;2.47;;
5951;SDS011;3001;42.622;23.194;2022-08-01T02:03:10;2.33;;;2.23;;
5951;SDS011;3001;42.622;23.194;2022-08-01T02:05:39;4.27;;;2.07;;
5951;SDS011;3001;42.622;23.194;2022-08-01T02:08:08;5.90;;;2.50;;
5951;SDS011;3001;42.622;23.194;2022-08-01T02:10:38;2.53;;;2.33;;
5951;SDS011;3001;42.622;23.194;2022-08-01T02:13:06;2.40;;;2.30;;
5951;SDS011;3001;42.622;23.194;2022-08-01T02:15:34;2.33;;;2.23;;
5951;SDS011;3001;42.622;23.194;2022-08-01T02:18:03;3.63;;;2.57;;
5951;SDS011;3001;42.622;23.194;2022-08-01T02:20:34;2.40;;;2.30;;
5951;SDS011;3001;42.622;23.194;2022-08-01T02:23:05;2.50;;;2.30;;
5951;SDS011;3001;42.622;23.194;2022-08-01T02:25:36;3.43;;;2.27;;
5951;SDS011;3001;42.622;23.194;2022-08-01T02:28:09;2.47;;;2.27;;
5951;SDS011;3001;42.622;23.194;2022-08-01T02:30:41;2.47;;;2.37;;
5951;SDS011;3001;42.622;23.194;2022-08-01T02:33:14;4.03;;;1.97;;
5951;SDS011;3001;42.622;23.194;2022-08-01T02:35:46;2.90;;;2.70;;
5951;SDS011;3001;42.622;23.194;2022-08-01T02:38:16;2.83;;;2.63;;
5951;SDS011;3001;42.622;23.194;2022-08-01T02:40:45;3.00;;;2.80;;
5951;SDS011;3001;42.622;23.194;2022-08-01T02:43:15;2.57;;;2.47;;
5951;SDS011;3001;42.622;23.194;2022-08-01T02:45:47;2.60;;;2.50;;
5951;SDS011;3001;42.622;23.194;2022-08-01T02:48:19;3.40;;;2.57;;
5951;SDS011;3001;42.622;23.194;2022-08-01T02:50:49;3.37;;;2.37;;
5951;SDS011;3001;42.622;23.194;2022-08-01T02:53:19;2.40;;;2.30;;
5951;SDS011;3001;42.622;23.194;2022-08-01T02:55:49;2.20;;;2.10;;
5951;SDS011;3001;42.622;23.194;2022-08-01T02:58:18;2.47;;;2.27;;
5951;SDS011;3001;42.622;23.194;2022-08-01T03:00:49;2.20;;;2.10;;
5951;SDS011;3001;42.622;23.194;2022-08-01T03:03:17;2.37;;;2.27;;
5951;SDS011;3001;42.622;23.194;2022-08-01T03:05:45;2.33;;;2.13;;
5951;SDS011;3001;42.622;23.194;2022-08-01T03:08:15;6.60;;;2.10;;
5951;SDS011;3001;42.622;23.194;2022-08-01T03:10:44;2.30;;;2.20;;
5951;SDS011;3001;42.622;23.194;2022-08-01T03:13:13;2.17;;;2.07;;
5951;SDS011;3001;42.622;23.194;2022-08-01T03:15:41;2.23;;;2.13;;
5951;SDS011;3001;42.622;23.194;2022-08-01T03:18:10;2.23;;;2.13;;
5951;SDS011;3001;42.622;23.194;2022-08-01T03:20:38;12.37;;;2.30;;
5951;SDS011;3001;42.622;23.194;2022-08-01T03:23:06;2.50;;;2.30;;
5951;SDS011;3001;42.622;23.194;2022-08-01T03:25:38;2.80;;;2.70;;
5951;SDS011;3001;42.622;23.194;2022-08-01T03:28:06;2.27;;;2.17;;
5951;SDS011;3001;42.622;23.194;2022-08-01T03:30:38;3.67;;;2.50;;
5951;SDS011;3001;42.622;23.194;2022-08-01T03:33:06;3.73;;;2.03;;
5951;SDS011;3001;42.622;23.194;2022-08-01T03:35:34;3.00;;;2.63;;
5951;SDS011;3001;42.622;23.194;2022-08-01T03:38:05;3.97;;;2.53;;
5951;SDS011;3001;42.622;23.194;2022-08-01T03:40:37;2.67;;;2.47;;
5951;SDS011;3001;42.622;23.194;2022-08-01T03:43:07;2.80;;;2.60;;
5951;SDS011;3001;42.622;23.194;2022-08-01T03:45:38;2.47;;;2.37;;
5951;SDS011;3001;42.622;23.194;2022-08-01T03:48:09;2.40;;;2.20;;
5951;SDS011;3001;42.622;23.194;2022-08-01T03:50:39;2.47;;;2.30;;
5951;SDS011;3001;42.622;23.194;2022-08-01T03:53:09;2.50;;;2.40;;
5951;SDS011;3001;42.622;23.194;2022-08-01T03:55:39;2.30;;;2.20;;
5951;SDS011;3001;42.622;23.194;2022-08-01T03:58:08;2.03;;;1.93;;
5951;SDS011;3001;42.622;23.194;2022-08-01T04:00:36;2.60;;;2.40;;
5951;SDS011;3001;42.622;23.194;2022-08-01T04:03:05;2.40;;;2.30;;
5951;SDS011;3001;42.622;23.194;2022-08-01T04:05:33;3.63;;;2.30;;
5951;SDS011;3001;42.622;23.194;2022-08-01T04:08:00;2.50;;;2.40;;
5951;SDS011;3001;42.622;23.194;2022-08-01T04:10:30;5.13;;;3.23;;
5951;SDS011;3001;42.622;23.194;2022-08-01T04:12:58;3.43;;;3.23;;
5951;SDS011;3001;42.622;23.194;2022-08-01T04:15:25;5.37;;;3.20;;
5951;SDS011;3001;42.622;23.194;2022-08-01T04:17:52;3.10;;;2.80;;
5951;SDS011;3001;42.622;23.194;2022-08-01T04:20:19;3.10;;;2.53;;
5951;SDS011;3001;42.622;23.194;2022-08-01T04:22:46;2.50;;;2.40;;
5951;SDS011;3001;42.622;23.194;2022-08-01T04:25:14;3.23;;;3.03;;
5951;SDS011;3001;42.622;23.194;2022-08-01T04:27:44;3.93;;;3.20;;
5951;SDS011;3001;42.622;23.194;2022-08-01T04:30:15;3.73;;;3.10;;
5951;SDS011;3001;42.622;23.194;2022-08-01T04:32:44;3.00;;;2.80;;
5951;SDS011;3001;42.622;23.194;2022-08-01T04:35:13;2.80;;;2.70;;
5951;SDS011;3001;42.622;23.194;2022-08-01T04:37:43;2.77;;;2.67;;
5951;SDS011;3001;42.622;23.194;2022-08-01T04:40:13;3.53;;;3.23;;
5951;SDS011;3001;42.622;23.194;2022-08-01T04:42:42;3.53;;;3.23;;
5951;SDS011;3001;42.622;23.194;2022-08-01T04:45:09;3.20;;;2.90;;
5951;SDS011;3001;42.622;23.194;2022-08-01T04:47:38;3.53;;;3.23;;
5951;SDS011;3001;42.622;23.194;2022-08-01T04:50:07;4.80;;;3.10;;
5951;SDS011;3001;42.622;23.194;2022-08-01T04:52:36;2.97;;;2.87;;
5951;SDS011;3001;42.622;23.194;2022-08-01T04:55:04;3.20;;;3.00;;
5951;SDS011;3001;42.622;23.194;2022-08-01T04:57:32;2.97;;;2.67;;
5951;SDS011;3001;42.622;23.194;2022-08-01T05:00:02;3.23;;;3.03;;
5951;SDS011;3001;42.622;23.194;2022-08-01T05:02:31;3.70;;;3.40;;
5951;SDS011;3001;42.622;23.194;2022-08-01T05:05:00;3.13;;;3.03;;
5951;SDS011;3001;42.622;23.194;2022-08-01T05:07:26;3.60;;;3.37;;
5951;SDS011;3001;42.622;23.194;2022-08-01T05:09:53;3.40;;;3.10;;
5951;SDS011;3001;42.622;23.194;2022-08-01T05:12:20;3.47;;;3.27;;
5951;SDS011;3001;42.622;23.194;2022-08-01T05:14:47;3.80;;;3.60;;
5951;SDS011;3001;42.622;23.194;2022-08-01T05:17:13;7.87;;;3.97;;
5951;SDS011;3001;42.622;23.194;2022-08-01T05:19:41;4.23;;;3.93;;
5951;SDS011;3001;42.622;23.194;2022-08-01T05:22:10;5.73;;;3.97;;
5951;SDS011;3001;42.622;23.194;2022-08-01T05:24:37;3.53;;;3.33;;
5951;SDS011;3001;42.622;23.194;2022-08-01T05:27:05;3.93;;;3.63;;
5951;SDS011;3001;42.622;23.194;2022-08-01T05:29:33;4.13;;;3.80;;
5951;SDS011;3001;42.622;23.194;2022-08-01T05:32:00;3.70;;;3.60;;
5951;SDS011;3001;42.622;23.194;2022-08-01T05:34:28;3.73;;;3.43;;
5951;SDS011;3001;42.622;23.194;2022-08-01T05:36:54;8.50;;;3.60;;
5951;SDS011;3001;42.622;23.194;2022-08-01T05:39:22;3.83;;;3.53;;
5951;SDS011;3001;42.622;23.194;2022-08-01T05:41:49;3.53;;;3.33;;
5951;SDS011;3001;42.622;23.194;2022-08-01T05:44:16;3.47;;;3.30;;
5951;SDS011;3001;42.622;23.194;2022-08-01T05:46:43;4.20;;;3.63;;
5951;SDS011;3001;42.622;23.194;2022-08-01T05:49:10;3.50;;;3.30;;
5951;SDS011;3001;42.622;23.194;2022-08-01T05:51:36;3.50;;;3.20;;
5951;SDS011;3001;42.622;23.194;2022-08-01T05:54:04;3.20;;;3.10;;
5951;SDS011;3001;42.622;23.194;2022-08-01T05:56:32;2.83;;;2.70;;
5951;SDS011;3001;42.622;23.194;2022-08-01T05:58:59;3.07;;;2.97;;
5951;SDS011;3001;42.622;23.194;2022-08-01T06:01:25;3.43;;;3.23;;
5951;SDS011;3001;42.622;23.194;2022-08-01T06:03:52;3.30;;;3.20;;
5951;SDS011;3001;42.622;23.194;2022-08-01T06:06:19;3.73;;;2.77;;
5951;SDS011;3001;42.622;23.194;2022-08-01T06:08:46;3.17;;;2.83;;
5951;SDS011;3001;42.622;23.194;2022-08-01T06:11:13;2.60;;;2.50;;
5951;SDS011;3001;42.622;23.194;2022-08-01T06:13:41;2.97;;;2.77;;
5951;SDS011;3001;42.622;23.194;2022-08-01T06:16:08;9.83;;;2.80;;
5951;SDS011;3001;42.622;23.194;2022-08-01T06:18:34;2.50;;;2.40;;
5951;SDS011;3001;42.622;23.194;2022-08-01T06:21:01;3.33;;;2.57;;
5951;SDS011;3001;42.622;23.194;2022-08-01T06:23:29;2.70;;;2.50;;
5951;SDS011;3001;42.622;23.194;2022-08-01T06:25:55;2.80;;;2.70;;
5951;SDS011;3001;42.622;23.194;2022-08-01T06:28:23;2.40;;;2.20;;
5951;SDS011;3001;42.622;23.194;2022-08-01T06:30:51;2.57;;;2.47;;
5951;SDS011;3001;42.622;23.194;2022-08-01T06:33:18;2.60;;;2.50;;
5951;SDS011;3001;42.622;23.194;2022-08-01T06:35:45;2.53;;;2.43;;
5951;SDS011;3001;42.622;23.194;2022-08-01T06:38:11;2.73;;;2.53;;
5951;SDS011;3001;42.622;23.194;2022-08-01T06:40:38;4.77;;;2.90;;
5951;SDS011;3001;42.622;23.194;2022-08-01T06:43:05;3.07;;;2.33;;
5951;SDS011;3001;42.622;23.194;2022-08-01T06:45:32;2.57;;;2.47;;
5951;SDS011;3001;42.622;23.194;2022-08-01T06:48:03;3.00;;;2.80;;
5951;SDS011;3001;42.622;23.194;2022-08-01T06:50:31;2.57;;;2.47;;
5951;SDS011;3001;42.622;23.194;2022-08-01T06:52:58;2.90;;;2.67;;
5951;SDS011;3001;42.622;23.194;2022-08-01T06:55:24;2.97;;;2.87;;
5951;SDS011;3001;42.622;23.194;2022-08-01T06:57:51;3.40;;;2.90;;
5951;SDS011;3001;42.622;23.194;2022-08-01T07:00:19;3.67;;;3.33;;
5951;SDS011;3001;42.622;23.194;2022-08-01T07:02:47;4.63;;;2.83;;
5951;SDS011;3001;42.622;23.194;2022-08-01T07:05:15;3.37;;;3.17;;
5951;SDS011;3001;42.622;23.194;2022-08-01T07:07:42;3.23;;;2.60;;
5951;SDS011;3001;42.622;23.194;2022-08-01T07:10:09;4.07;;;3.77;;
5951;SDS011;3001;42.622;23.194;2022-08-01T07:12:36;5.20;;;3.37;;
5951;SDS011;3001;42.622;23.194;2022-08-01T07:15:05;3.70;;;3.50;;
5951;SDS011;3001;42.622;23.194;2022-08-01T07:17:36;3.17;;;3.00;;
5951;SDS011;3001;42.622;23.194;2022-08-01T07:20:04;6.50;;;3.83;;
5951;SDS011;3001;42.622;23.194;2022-08-01T07:22:33;5.00;;;3.80;;
5951;SDS011;3001;42.622;23.194;2022-08-01T07:25:00;3.87;;;3.57;;
5951;SDS011;3001;42.622;23.194;2022-08-01T07:27:27;3.37;;;3.17;;
5951;SDS011;3001;42.622;23.194;2022-08-01T07:29:54;4.17;;;3.40;;
5951;SDS011;3001;42.622;23.194;2022-08-01T07:32:20;4.53;;;3.63;;
5951;SDS011;3001;42.622;23.194;2022-08-01T07:34:47;4.33;;;3.93;;
5951;SDS011;3001;42.622;23.194;2022-08-01T07:37:14;4.00;;;3.60;;
5951;SDS011;3001;42.622;23.194;2022-08-01T07:39:42;3.63;;;3.50;;
5951;SDS011;3001;42.622;23.194;2022-08-01T07:42:09;3.77;;;3.57;;
5951;SDS011;3001;42.622;23.194;2022-08-01T07:44:36;4.70;;;3.40;;
5951;SDS011;3001;42.622;23.194;2022-08-01T07:47:03;3.40;;;3.20;;
5951;SDS011;3001;42.622;23.194;2022-08-01T07:49:30;3.90;;;3.60;;
5951;SDS011;3001;42.622;23.194;2022-08-01T07:51:57;2.97;;;2.87;;
5951;SDS011;3001;42.622;23.194;2022-08-01T07:54:23;3.10;;;2.80;;
5951;SDS011;3001;42.622;23.194;2022-08-01T07:56:54;3.33;;;3.23;;
5951;SDS011;3001;42.622;23.194;2022-08-01T07:59:21;3.80;;;3.50;;
5951;SDS011;3001;42.622;23.194;2022-08-01T08:01:48;3.87;;;3.70;;
5951;SDS011;3001;42.622;23.194;2022-08-01T08:04:16;3.23;;;3.03;;
5951;SDS011;3001;42.622;23.194;2022-08-01T08:06:43;4.60;;;3.40;;
5951;SDS011;3001;42.622;23.194;2022-08-01T08:09:12;3.27;;;3.17;;
5951;SDS011;3001;42.622;23.194;2022-08-01T08:11:41;3.47;;;3.17;;
5951;SDS011;3001;42.622;23.194;2022-08-01T08:14:09;3.20;;;3.10;;
5951;SDS011;3001;42.622;23.194;2022-08-01T08:16:36;3.20;;;3.10;;
5951;SDS011;3001;42.622;23.194;2022-08-01T08:19:03;2.90;;;2.70;;
5951;SDS011;3001;42.622;23.194;2022-08-01T08:21:30;3.20;;;3.10;;
5951;SDS011;3001;42.622;23.194;2022-08-01T08:23:56;3.03;;;2.83;;
5951;SDS011;3001;42.622;23.194;2022-08-01T08:26:49;2.60;;;2.50;;
5951;SDS011;3001;42.622;23.194;2022-08-01T08:29:19;2.50;;;2.40;;
5951;SDS011;3001;42.622;23.194;2022-08-01T08:31:46;3.67;;;3.47;;
5951;SDS011;3001;42.622;23.194;2022-08-01T08:34:13;3.37;;;3.20;;
5951;SDS011;3001;42.622;23.194;2022-08-01T08:36:40;3.13;;;2.83;;
5951;SDS011;3001;42.622;23.194;2022-08-01T08:39:07;2.80;;;2.70;;
5951;SDS011;3001;42.622;23.194;2022-08-01T08:41:34;2.90;;;2.80;;
5951;SDS011;3001;42.622;23.194;2022-08-01T08:44:01;2.43;;;2.33;;
5951;SDS011;3001;42.622;23.194;2022-08-01T08:46:30;2.70;;;2.60;;
5951;SDS011;3001;42.622;23.194;2022-08-01T08:48:59;5.73;;;2.77;;
5951;SDS011;3001;42.622;23.194;2022-08-01T08:51:27;2.33;;;2.23;;
5951;SDS011;3001;42.622;23.194;2022-08-01T08:53:57;5.23;;;4.90;;
5951;SDS011;3001;42.622;23.194;2022-08-01T08:56:25;4.47;;;3.57;;
5951;SDS011;3001;42.622;23.194;2022-08-01T08:58:55;5.80;;;5.37;;
5951;SDS011;3001;42.622;23.194;2022-08-01T09:01:22;6.60;;;6.20;;
5951;SDS011;3001;42.622;23.194;2022-08-01T09:03:50;4.33;;;4.00;;
5951;SDS011;3001;42.622;23.194;2022-08-01T09:06:17;7.60;;;3.50;;
5951;SDS011;3001;42.622;23.194;2022-08-01T09:08:44;3.90;;;3.70;;
5951;SDS011;3001;42.622;23.194;2022-08-01T09:11:11;3.37;;;3.07;;
5951;SDS011;3001;42.622;23.194;2022-08-01T09:13:38;5.80;;;5.10;;
5951;SDS011;3001;42.622;23.194;2022-08-01T09:16:05;3.13;;;3.00;;
5951;SDS011;3001;42.622;23.194;2022-08-01T09:18:32;5.30;;;3.10;;
5951;SDS011;3001;42.622;23.194;2022-08-01T09:21:08;3.00;;;2.80;;
5951;SDS011;3001;42.622;23.194;2022-08-01T09:23:37;3.07;;;2.87;;
5951;SDS011;3001;42.622;23.194;2022-08-01T09:26:07;4.83;;;3.27;;
5951;SDS011;3001;42.622;23.194;2022-08-01T09:28:35;2.90;;;2.80;;
5951;SDS011;3001;42.622;23.194;2022-08-01T09:31:05;2.73;;;2.63;;
5951;SDS011;3001;42.622;23.194;2022-08-01T09:33:46;2.80;;;2.60;;
5951;SDS011;3001;42.622;23.194;2022-08-01T09:36:18;2.97;;;2.77;;
5951;SDS011;3001;42.622;23.194;2022-08-01T09:38:46;5.63;;;5.33;;
5951;SDS011;3001;42.622;23.194;2022-08-01T09:41:13;5.83;;;5.40;;
5951;SDS011;3001;42.622;23.194;2022-08-01T09:43:40;4.87;;;4.57;;
5951;SDS011;3001;42.622;23.194;2022-08-01T09:46:15;4.40;;;4.10;;
5951;SDS011;3001;42.622;23.194;2022-08-01T09:48:54;4.00;;;3.70;;
5951;SDS011;3001;42.622;23.194;2022-08-01T09:51:28;4.13;;;3.70;;
5951;SDS011;3001;42.622;23.194;2022-08-01T09:53:56;4.80;;;4.50;;
5951;SDS011;3001;42.622;23.194;2022-08-01T09:56:24;4.63;;;4.33;;
5951;SDS011;3001;42.622;23.194;2022-08-01T09:58:52;3.73;;;3.53;;
5951;SDS011;3001;42.622;23.194;2022-08-01T10:01:21;4.37;;;4.07;;
5951;SDS011;3001;42.622;23.194;2022-08-01T10:04:03;4.70;;;4.50;;
5951;SDS011;3001;42.622;23.194;2022-08-01T10:06:36;5.83;;;3.97;;
5951;SDS011;3001;42.622;23.194;2022-08-01T10:09:03;5.07;;;4.73;;
5951;SDS011;3001;42.622;23.194;2022-08-01T10:11:30;3.37;;;3.27;;
5951;SDS011;3001;42.622;23.194;2022-08-01T10:13:58;3.13;;;3.03;;
5951;SDS011;3001;42.622;23.194;2022-08-01T10:16:27;3.77;;;3.47;;
5951;SDS011;3001;42.622;23.194;2022-08-01T10:18:54;3.40;;;3.20;;
5951;SDS011;3001;42.622;23.194;2022-08-01T10:21:23;3.23;;;3.03;;
5951;SDS011;3001;42.622;23.194;2022-08-01T10:23:54;3.60;;;3.40;;
5951;SDS011;3001;42.622;23.194;2022-08-01T10:26:25;3.03;;;2.93;;
5951;SDS011;3001;42.622;23.194;2022-08-01T10:28:54;3.17;;;3.07;;
5951;SDS011;3001;42.622;23.194;2022-08-01T10:31:21;3.43;;;3.33;;
5951;SDS011;3001;42.622;23.194;2022-08-01T10:33:48;2.67;;;2.57;;
5951;SDS011;3001;42.622;23.194;2022-08-01T10:36:17;3.13;;;3.03;;
5951;SDS011;3001;42.622;23.194;2022-08-01T10:38:45;3.03;;;2.93;;
5951;SDS011;3001;42.622;23.194;2022-08-01T10:41:14;3.30;;;3.10;;
5951;SDS011;3001;42.622;23.194;2022-08-01T10:43:44;3.80;;;3.60;;
5951;SDS011;3001;42.622;23.194;2022-08-01T10:46:10;3.30;;;2.73;;
5951;SDS011;3001;42.622;23.194;2022-08-01T10:48:39;3.13;;;3.03;;
5951;SDS011;3001;42.622;23.194;2022-08-01T10:51:11;3.33;;;3.23;;
5951;SDS011;3001;42.622;23.194;2022-08-01T10:53:45;3.60;;;3.40;;
5951;SDS011;3001;42.622;23.194;2022-08-01T10:56:12;3.63;;;3.53;;
5951;SDS011;3001;42.622;23.194;2022-08-01T10:58:42;3.40;;;3.30;;
5951;SDS011;3001;42.622;23.194;2022-08-01T11:01:17;3.80;;;3.60;;
5951;SDS011;3001;42.622;23.194;2022-08-01T11:03:56;2.90;;;2.80;;
5951;SDS011;3001;42.622;23.194;2022-08-01T11:06:25;3.10;;;2.90;;
5951;SDS011;3001;42.622;23.194;2022-08-01T11:09:03;3.00;;;2.90;;
5951;SDS011;3001;42.622;23.194;2022-08-01T11:11:32;2.97;;;2.87;;
5951;SDS011;3001;42.622;23.194;2022-08-01T11:14:19;4.00;;;3.70;;
5951;SDS011;3001;42.622;23.194;2022-08-01T11:16:46;3.20;;;3.10;;
5951;SDS011;3001;42.622;23.194;2022-08-01T11:19:12;3.33;;;3.13;;
5951;SDS011;3001;42.622;23.194;2022-08-01T11:21:58;3.10;;;3.00;;
5951;SDS011;3001;42.622;23.194;2022-08-01T11:27:25;3.80;;;3.60;;
5951;SDS011;3001;42.622;23.194;2022-08-01T11:32:52;2.57;;;2.47;;
5951;SDS011;3001;42.622;23.194;2022-08-01T11:35:21;3.40;;;3.23;;
5951;SDS011;3001;42.622;23.194;2022-08-01T11:37:52;2.80;;;2.60;;
5951;SDS011;3001;42.622;23.194;2022-08-01T11:40:21;3.33;;;3.22;;
5951;SDS011;3001;42.622;23.194;2022-08-01T11:42:51;4.67;;;4.47;;
5951;SDS011;3001;42.622;23.194;2022-08-01T11:45:47;3.70;;;3.50;;
5951;SDS011;3001;42.622;23.194;2022-08-01T11:48:17;3.77;;;3.67;;
5951;SDS011;3001;42.622;23.194;2022-08-01T11:50:44;3.27;;;2.97;;
5951;SDS011;3001;42.622;23.194;2022-08-01T11:53:11;3.30;;;3.20;;
5951;SDS011;3001;42.622;23.194;2022-08-01T11:55:43;3.50;;;3.40;;
5951;SDS011;3001;42.622;23.194;2022-08-01T11:58:14;3.50;;;3.40;;
5951;SDS011;3001;42.622;23.194;2022-08-01T12:00:49;4.10;;;3.92;;
5951;SDS011;3001;42.622;23.194;2022-08-01T12:03:22;4.13;;;3.83;;
5951;SDS011;3001;42.622;23.194;2022-08-01T12:05:50;4.15;;;4.05;;
5951;SDS011;3001;42.622;23.194;2022-08-01T12:08:23;3.83;;;3.72;;
5951;SDS011;3001;42.622;23.194;2022-08-01T12:10:51;3.72;;;3.58;;
5951;SDS011;3001;42.622;23.194;2022-08-01T12:13:19;3.55;;;3.42;;
5951;SDS011;3001;42.622;23.194;2022-08-01T12:15:47;3.50;;;3.40;;
5951;SDS011;3001;42.622;23.194;2022-08-01T12:18:15;3.30;;;3.20;;
5951;SDS011;3001;42.622;23.194;2022-08-01T12:20:43;3.70;;;3.50;;
5951;SDS011;3001;42.622;23.194;2022-08-01T12:23:11;6.03;;;3.15;;
5951;SDS011;3001;42.622;23.194;2022-08-01T12:25:39;3.25;;;3.05;;
5951;SDS011;3001;42.622;23.194;2022-08-01T12:28:09;3.10;;;3.00;;
5951;SDS011;3001;42.622;23.194;2022-08-01T12:30:39;2.95;;;2.85;;
5951;SDS011;3001;42.622;23.194;2022-08-01T12:33:07;2.95;;;2.85;;
5951;SDS011;3001;42.622;23.194;2022-08-01T12:35:36;3.10;;;3.00;;
5951;SDS011;3001;42.622;23.194;2022-08-01T12:38:04;3.10;;;2.97;;
5951;SDS011;3001;42.622;23.194;2022-08-01T12:40:33;3.50;;;3.10;;
5951;SDS011;3001;42.622;23.194;2022-08-01T12:43:01;3.20;;;2.97;;
5951;SDS011;3001;42.622;23.194;2022-08-01T12:45:30;2.90;;;2.80;;
5951;SDS011;3001;42.622;23.194;2022-08-01T12:48:01;3.80;;;3.58;;
5951;SDS011;3001;42.622;23.194;2022-08-01T12:50:33;3.50;;;3.33;;
5951;SDS011;3001;42.622;23.194;2022-08-01T12:53:03;2.90;;;2.70;;
5951;SDS011;3001;42.622;23.194;2022-08-01T12:55:30;3.05;;;2.95;;
5951;SDS011;3001;42.622;23.194;2022-08-01T12:58:03;3.13;;;3.03;;
5951;SDS011;3001;42.622;23.194;2022-08-01T13:00:31;3.30;;;3.20;;
5951;SDS011;3001;42.622;23.194;2022-08-01T13:03:03;3.10;;;2.90;;
5951;SDS011;3001;42.622;23.194;2022-08-01T13:05:41;3.90;;;3.13;;
5951;SDS011;3001;42.622;23.194;2022-08-01T13:08:10;3.00;;;2.90;;
5951;SDS011;3001;42.622;23.194;2022-08-01T13:10:38;3.42;;;3.33;;
5951;SDS011;3001;42.622;23.194;2022-08-01T13:13:05;3.15;;;3.05;;
5951;SDS011;3001;42.622;23.194;2022-08-01T13:15:33;3.03;;;2.92;;
5951;SDS011;3001;42.622;23.194;2022-08-01T13:20:50;3.45;;;3.35;;
5951;SDS011;3001;42.622;23.194;2022-08-01T13:23:33;2.88;;;2.78;;
5951;SDS011;3001;42.622;23.194;2022-08-01T13:26:00;2.75;;;2.55;;
5951;SDS011;3001;42.622;23.194;2022-08-01T13:28:27;3.45;;;3.28;;
5951;SDS011;3001;42.622;23.194;2022-08-01T13:30:57;3.22;;;3.13;;
5951;SDS011;3001;42.622;23.194;2022-08-01T13:33:27;2.95;;;2.85;;
5951;SDS011;3001;42.622;23.194;2022-08-01T13:36:06;3.10;;;2.90;;
5951;SDS011;3001;42.622;23.194;2022-08-01T13:38:33;3.22;;;3.03;;
5951;SDS011;3001;42.622;23.194;2022-08-01T13:41:17;3.38;;;3.10;;
5951;SDS011;3001;42.622;23.194;2022-08-01T13:43:43;2.97;;;2.80;;
5951;SDS011;3001;42.622;23.194;2022-08-01T13:46:10;3.70;;;3.40;;
5951;SDS011;3001;42.622;23.194;2022-08-01T13:48:38;3.53;;;2.90;;
5951;SDS011;3001;42.622;23.194;2022-08-01T13:51:05;2.70;;;2.60;;
5951;SDS011;3001;42.622;23.194;2022-08-01T13:53:32;3.00;;;2.90;;
5951;SDS011;3001;42.622;23.194;2022-08-01T13:55:59;3.00;;;2.90;;
5951;SDS011;3001;42.622;23.194;2022-08-01T13:58:25;2.90;;;2.70;;
5951;SDS011;3001;42.622;23.194;2022-08-01T14:00:53;2.60;;;2.50;;
5951;SDS011;3001;42.622;23.194;2022-08-01T14:03:20;2.90;;;2.70;;
5951;SDS011;3001;42.622;23.194;2022-08-01T14:05:48;2.85;;;2.75;;
5951;SDS011;3001;42.622;23.194;2022-08-01T14:08:16;5.05;;;3.03;;
5951;SDS011;3001;42.622;23.194;2022-08-01T14:10:43;2.88;;;2.78;;
5951;SDS011;3001;42.622;23.194;2022-08-01T14:13:10;8.50;;;3.03;;
5951;SDS011;3001;42.622;23.194;2022-08-01T14:15:37;2.78;;;2.67;;
5951;SDS011;3001;42.622;23.194;2022-08-01T14:18:04;2.88;;;2.70;;
5951;SDS011;3001;42.622;23.194;2022-08-01T14:20:31;3.03;;;2.83;;
5951;SDS011;3001;42.622;23.194;2022-08-01T14:23:00;5.47;;;2.70;;
5951;SDS011;3001;42.622;23.194;2022-08-01T14:25:27;2.78;;;2.67;;
5951;SDS011;3001;42.622;23.194;2022-08-01T14:27:53;2.63;;;2.42;;
5951;SDS011;3001;42.622;23.194;2022-08-01T14:30:20;2.63;;;2.53;;
5951;SDS011;3001;42.622;23.194;2022-08-01T14:32:47;3.22;;;3.05;;
5951;SDS011;3001;42.622;23.194;2022-08-01T14:35:14;3.30;;;2.90;;
5951;SDS011;3001;42.622;23.194;2022-08-01T14:37:40;2.63;;;2.53;;
5951;SDS011;3001;42.622;23.194;2022-08-01T14:40:09;2.50;;;2.40;;
5951;SDS011;3001;42.622;23.194;2022-08-01T14:42:36;2.60;;;2.50;;
5951;SDS011;3001;42.622;23.194;2022-08-01T14:45:04;2.70;;;2.60;;
5951;SDS011;3001;42.622;23.194;2022-08-01T14:47:34;2.75;;;2.65;;
5951;SDS011;3001;42.622;23.194;2022-08-01T14:50:01;2.95;;;2.78;;
5951;SDS011;3001;42.622;23.194;2022-08-01T14:52:29;3.55;;;3.40;;
5951;SDS011;3001;42.622;23.194;2022-08-01T14:54:56;2.90;;;2.80;;
5951;SDS011;3001;42.622;23.194;2022-08-01T14:57:24;14.02;;;12.80;;
5951;SDS011;3001;42.622;23.194;2022-08-01T14:59:51;13.43;;;12.10;;
5951;SDS011;3001;42.622;23.194;2022-08-01T15:02:18;5.35;;;5.05;;
5951;SDS011;3001;42.622;23.194;2022-08-01T15:04:45;11.65;;;10.70;;
5951;SDS011;3001;42.622;23.194;2022-08-01T15:07:12;47.03;;;35.55;;
5951;SDS011;3001;42.622;23.194;2022-08-01T15:09:39;22.83;;;19.83;;
5951;SDS011;3001;42.622;23.194;2022-08-01T15:12:07;12.20;;;11.10;;
5951;SDS011;3001;42.622;23.194;2022-08-01T15:14:36;4.05;;;3.83;;
5951;SDS011;3001;42.622;23.194;2022-08-01T15:17:15;4.68;;;4.47;;
5951;SDS011;3001;42.622;23.194;2022-08-01T15:19:43;3.42;;;3.22;;